Time;durP1;ratioP1;P1;durP2;ratioP2;P2;SDS_P1;SDS_P2;PMS_P1;PMS_P2;Temp;Humidity;BMP_temperature;BMP_pressure;BME280_temperature;BME280_humidity;BME280_pressure;Samples;Min_cycle;Max_cycle;Signal;HPM_P1;HPM_P2
2023/03/25 00:00:25;;;;;;;1545.80;539.15;;;16.70;72.40;;;;;;5035690;28;20144;-45
2023/03/25 00:02:51;;;;;;;1161.68;423.25;;;16.60;72.20;;;;;;5034985;28;20049;-40
2023/03/25 00:05:19;;;;;;;1323.28;473.63;;;16.60;71.20;;;;;;5035866;28;20046;-44
2023/03/25 00:07:48;;;;;;;1255.88;438.75;;;16.70;71.20;;;;;;5035621;28;20492;-42
2023/03/25 00:10:15;;;;;;;1257.13;443.85;;;16.60;71.10;;;;;;5035434;28;20065;-43
2023/03/25 00:12:42;;;;;;;1149.47;411.42;;;16.60;71.00;;;;;;5035667;28;20456;-42
2023/03/25 00:15:09;;;;;;;1201.90;442.20;;;16.60;71.00;;;;;;5035544;28;20046;-44
2023/03/25 00:17:37;;;;;;;1140.65;398.35;;;16.60;70.90;;;;;;5035319;28;20052;-46
2023/03/25 00:20:07;;;;;;;1173.22;425.30;;;16.60;70.70;;;;;;5035753;28;20099;-42
2023/03/25 00:22:39;;;;;;;1159.90;415.35;;;16.60;70.90;;;;;;5035759;28;20137;-44
2023/03/25 00:25:10;;;;;;;1120.00;407.27;;;16.60;70.70;;;;;;5035116;28;20076;-41
2023/03/25 00:27:37;;;;;;;1119.80;400.50;;;16.60;70.90;;;;;;5035508;28;20484;-44
2023/03/25 00:30:05;;;;;;;1172.10;422.02;;;16.60;70.80;;;;;;5034973;28;20058;-43
2023/03/25 00:32:32;;;;;;;1123.40;395.30;;;16.60;70.80;;;;;;5035148;28;20381;-43
2023/03/25 00:34:58;;;;;;;1114.35;400.45;;;16.50;70.80;;;;;;5035337;28;20509;-42
2023/03/25 00:37:26;;;;;;;1042.40;382.27;;;16.60;70.80;;;;;;5035081;28;20045;-43
2023/03/25 00:39:52;;;;;;;1116.20;395.52;;;16.50;70.70;;;;;;5035141;28;20144;-44
2023/03/25 00:42:24;;;;;;;1146.35;412.70;;;16.50;70.60;;;;;;5035388;28;20046;-43
2023/03/25 00:44:52;;;;;;;1109.68;400.45;;;16.50;70.60;;;;;;5034951;28;20061;-47
2023/03/25 00:47:20;;;;;;;1073.07;390.58;;;16.50;70.60;;;;;;5035402;28;20061;-42
2023/03/25 00:49:48;;;;;;;1170.20;424.67;;;16.60;70.60;;;;;;5034839;28;20095;-43
2023/03/25 00:52:14;;;;;;;1100.82;402.10;;;16.60;70.70;;;;;;5034471;28;20088;-41
2023/03/25 00:54:42;;;;;;;1070.80;394.40;;;16.50;70.50;;;;;;5034903;28;20546;-41
2023/03/25 00:57:08;;;;;;;1027.75;366.58;;;16.50;70.50;;;;;;5034565;28;20088;-41
2023/03/25 00:59:35;;;;;;;1036.38;378.25;;;16.50;70.50;;;;;;5024812;28;20488;-43
2023/03/25 01:02:02;;;;;;;1059.90;388.52;;;16.60;70.60;;;;;;5034691;28;20049;-40
2023/03/25 01:04:29;;;;;;;1048.20;369.95;;;16.50;70.70;;;;;;5034636;28;20179;-41
2023/03/25 01:06:56;;;;;;;1045.13;378.75;;;16.50;70.60;;;;;;5034425;28;20049;-41
2023/03/25 01:09:22;;;;;;;1062.28;379.65;;;16.50;70.60;;;;;;5034353;28;20056;-45
2023/03/25 01:11:49;;;;;;;1066.53;384.90;;;16.50;70.60;;;;;;5034390;28;20045;-42
2023/03/25 01:14:18;;;;;;;1031.22;376.40;;;16.50;70.60;;;;;;5033640;28;20537;-44
2023/03/25 01:16:45;;;;;;;991.35;360.42;;;16.50;70.50;;;;;;5034867;28;20067;-45
2023/03/25 01:19:12;;;;;;;1045.82;374.90;;;16.40;70.40;;;;;;5034396;28;20408;-41
2023/03/25 01:21:39;;;;;;;1041.68;367.05;;;16.50;70.50;;;;;;5033808;28;20072;-43
2023/03/25 01:24:06;;;;;;;1000.50;368.13;;;16.40;70.40;;;;;;5034013;28;20096;-41
2023/03/25 01:26:33;;;;;;;1062.68;379.70;;;16.50;70.50;;;;;;5033446;28;20558;-42
2023/03/25 01:29:00;;;;;;;1056.18;373.95;;;16.40;70.50;;;;;;5033768;28;20520;-45
2023/03/25 01:31:28;;;;;;;966.78;340.95;;;16.50;70.50;;;;;;5034459;28;20102;-46
2023/03/25 01:33:56;;;;;;;972.80;352.00;;;16.40;70.50;;;;;;5033905;28;20041;-41
2023/03/25 01:36:24;;;;;;;976.60;353.63;;;16.40;70.40;;;;;;5034491;28;20054;-47
2023/03/25 01:38:50;;;;;;;1029.07;368.35;;;16.40;70.50;;;;;;5034323;28;20045;-45
2023/03/25 01:41:17;;;;;;;988.65;357.95;;;16.40;70.50;;;;;;5033582;28;20412;-41
2023/03/25 01:44:06;;;;;;;1012.88;367.73;;;16.40;70.50;;;;;;5034199;28;20049;-42
2023/03/25 01:46:34;;;;;;;1014.90;363.13;;;16.40;70.60;;;;;;5034265;28;20408;-44
2023/03/25 01:49:02;;;;;;;1064.63;375.50;;;16.40;70.50;;;;;;5033308;28;20046;-42
2023/03/25 01:51:34;;;;;;;1040.00;371.05;;;16.40;70.40;;;;;;5032726;28;20104;-41
2023/03/25 01:54:00;;;;;;;1107.68;391.02;;;16.40;70.50;;;;;;5033347;28;20046;-42
2023/03/25 01:56:32;;;;;;;1083.20;383.67;;;16.40;70.50;;;;;;5032998;28;20052;-45
2023/03/25 01:59:01;;;;;;;1048.82;376.65;;;16.40;70.60;;;;;;5033482;28;20073;-43
2023/03/25 02:01:30;;;;;;;1094.32;388.77;;;16.30;70.50;;;;;;5032082;28;20056;-43
2023/03/25 02:04:01;;;;;;;1086.30;391.00;;;16.40;71.20;;;;;;5023311;28;20088;-41
2023/03/25 02:06:45;;;;;;;1091.70;388.63;;;16.30;70.50;;;;;;5032340;28;20049;-42
2023/03/25 02:09:13;;;;;;;1088.95;381.05;;;16.30;70.60;;;;;;5031327;28;20140;-46
2023/03/25 02:11:40;;;;;;;1122.13;395.75;;;16.30;70.60;;;;;;5032515;28;20049;-40
2023/03/25 02:14:18;;;;;;;1073.75;388.02;;;16.40;70.60;;;;;;5033263;28;20488;-46
2023/03/25 02:16:54;;;;;;;1093.70;395.17;;;16.30;70.60;;;;;;5031251;28;20080;-42
2023/03/25 02:19:41;;;;;;;1073.28;388.95;;;16.30;70.60;;;;;;5033266;28;20069;-41
2023/03/25 02:22:13;;;;;;;1129.00;407.35;;;16.30;70.60;;;;;;5033278;28;20131;-43
2023/03/25 02:24:52;;;;;;;1132.20;404.90;;;16.30;70.60;;;;;;5032759;28;20045;-43
2023/03/25 02:27:32;;;;;;;1167.80;423.05;;;16.30;70.60;;;;;;5032104;28;20156;-45
2023/03/25 02:30:17;;;;;;;1141.85;414.02;;;16.30;70.70;;;;;;5030843;28;20538;-47
2023/03/25 02:32:50;;;;;;;1157.18;417.52;;;16.30;70.60;;;;;;5033130;28;20132;-43
2023/03/25 02:35:57;;;;;;;1159.50;411.67;;;16.30;71.30;;;;;;5033475;28;20055;-47
2023/03/25 02:38:27;;;;;;;1260.85;449.08;;;16.30;70.70;;;;;;5031730;28;20055;-43
2023/03/25 02:41:13;;;;;;;1268.05;459.30;;;16.30;70.70;;;;;;5031744;28;20052;-42
2023/03/25 02:43:51;;;;;;;1236.78;441.83;;;16.30;70.70;;;;;;5034504;28;20107;-41
2023/03/25 02:46:19;;;;;;;1294.60;463.40;;;16.30;70.80;;;;;;5033012;28;20049;-43
2023/03/25 02:49:01;;;;;;;1237.70;437.50;;;16.30;70.70;;;;;;5031712;28;20774;-41
2023/03/25 02:51:30;;;;;;;1299.97;460.70;;;16.30;70.80;;;;;;5031244;28;20073;-42
2023/03/25 02:54:01;;;;;;;1302.80;457.75;;;16.20;70.70;;;;;;5031708;28;20054;-41
2023/03/25 02:56:31;;;;;;;1303.20;466.23;;;16.20;70.70;;;;;;5031631;28;20079;-41
2023/03/25 02:58:58;;;;;;;1293.18;475.98;;;16.20;70.70;;;;;;5030783;28;20113;-48
2023/03/25 03:01:25;;;;;;;1334.90;486.08;;;16.20;70.80;;;;;;5031431;28;20511;-42
2023/03/25 03:03:53;;;;;;;1366.50;485.98;;;16.20;70.70;;;;;;5032854;28;20041;-43
2023/03/25 03:06:20;;;;;;;1286.93;466.90;;;16.20;70.70;;;;;;5031000;28;20136;-41
2023/03/25 03:08:50;;;;;;;1335.55;479.95;;;16.20;70.70;;;;;;5021495;28;20440;-44
2023/03/25 03:11:20;;;;;;;1370.63;496.23;;;16.20;70.70;;;;;;5032462;28;20049;-44
2023/03/25 03:13:50;;;;;;;1440.75;496.90;;;16.20;70.70;;;;;;5031352;28;20077;-45
2023/03/25 03:16:23;;;;;;;1396.85;495.42;;;16.20;70.80;;;;;;5033098;28;20060;-43
2023/03/25 03:18:57;;;;;;;1441.82;510.30;;;16.20;70.80;;;;;;5032451;28;20041;-41
2023/03/25 03:21:45;;;;;;;1418.63;502.17;;;16.20;70.80;;;;;;5031299;28;20073;-41
2023/03/25 03:24:21;;;;;;;1487.45;530.35;;;16.20;70.80;;;;;;5031194;28;20108;-41
2023/03/25 03:27:03;;;;;;;1483.00;516.78;;;16.20;70.80;;;;;;5030841;28;20077;-48
2023/03/25 03:29:38;;;;;;;1524.78;538.10;;;16.20;70.80;;;;;;5035774;28;20064;-43
2023/03/25 03:32:12;;;;;;;1535.78;540.72;;;16.20;70.90;;;;;;5035667;28;20057;-46
2023/03/25 03:34:47;;;;;;;1495.03;526.17;;;16.20;70.90;;;;;;5036195;28;20065;-47
2023/03/25 03:37:26;;;;;;;1503.38;525.42;;;16.20;71.00;;;;;;5035463;28;20049;-47
2023/03/25 03:39:53;;;;;;;1474.78;526.80;;;16.10;70.90;;;;;;5035401;28;20083;-47
2023/03/25 03:42:34;;;;;;;1654.53;571.92;;;16.20;70.80;;;;;;5034556;28;20077;-41
2023/03/25 03:45:18;;;;;;;1642.68;563.90;;;16.10;70.90;;;;;;5035654;28;20055;-45
2023/03/25 03:47:51;;;;;;;1710.70;590.97;;;16.20;71.10;;;;;;5036264;28;20055;-48
2023/03/25 03:50:20;;;;;;;1700.20;590.50;;;16.10;71.10;;;;;;5035303;28;20500;-48
2023/03/25 03:53:22;;;;;;;1640.93;575.83;;;16.10;71.20;;;;;;5034771;28;20059;-47
2023/03/25 03:55:54;;;;;;;1664.00;576.55;;;16.10;71.30;;;;;;5034401;28;20099;-42
2023/03/25 03:58:24;;;;;;;1770.20;608.47;;;16.10;71.30;;;;;;5034983;28;20045;-42
2023/03/25 04:00:56;;;;;;;1660.13;583.28;;;16.10;71.30;;;;;;5035251;28;20053;-43
2023/03/25 04:03:49;;;;;;;1597.20;564.27;;;16.10;71.30;;;;;;5035569;28;20049;-43
2023/03/25 04:06:40;;;;;;;1632.40;577.55;;;16.10;71.30;;;;;;5035652;28;20053;-44
2023/03/25 04:09:26;;;;;;;1565.22;553.67;;;16.10;71.30;;;;;;5034149;28;20432;-48
2023/03/25 04:11:55;;;;;;;1577.43;553.83;;;16.10;71.20;;;;;;5026273;28;20132;-41
2023/03/25 04:14:21;;;;;;;1514.82;542.38;;;16.10;71.30;;;;;;5034633;28;20556;-46
2023/03/25 04:16:48;;;;;;;1483.07;530.70;;;16.00;71.20;;;;;;5035066;28;20045;-44
2023/03/25 04:19:17;;;;;;;1469.10;528.55;;;16.00;71.80;;;;;;5035942;28;20049;-44
2023/03/25 04:21:46;;;;;;;1450.20;524.00;;;16.00;71.20;;;;;;5035315;28;20496;-44
2023/03/25 04:24:15;;;;;;;1414.45;515.38;;;16.10;71.30;;;;;;5034745;28;20488;-47
2023/03/25 04:26:42;;;;;;;1367.60;498.98;;;16.00;71.30;;;;;;5035278;28;20049;-46
2023/03/25 04:29:09;;;;;;;1396.50;510.17;;;16.10;71.30;;;;;;5035241;28;20060;-42
2023/03/25 04:31:36;;;;;;;1356.90;502.33;;;16.00;71.30;;;;;;5034973;28;20061;-46
2023/03/25 04:34:03;;;;;;;1282.53;475.17;;;16.00;71.30;;;;;;5035537;28;20053;-44
2023/03/25 04:36:36;;;;;;;1294.53;476.88;;;16.00;71.20;;;;;;5034769;28;20080;-41
2023/03/25 04:39:03;;;;;;;1294.68;487.25;;;16.00;71.20;;;;;;5035275;28;20049;-39
2023/03/25 04:41:31;;;;;;;1229.60;464.92;;;16.00;71.20;;;;;;5035254;28;20059;-39
2023/03/25 04:43:59;;;;;;;1242.65;464.80;;;16.00;71.20;;;;;;5035014;28;20045;-39
2023/03/25 04:46:26;;;;;;;1208.78;453.35;;;16.00;71.30;;;;;;5035054;28;20053;-39
2023/03/25 04:48:55;;;;;;;1193.60;452.30;;;16.00;71.20;;;;;;5034111;28;20132;-43
2023/03/25 04:51:22;;;;;;;1154.95;432.45;;;16.00;71.30;;;;;;5033311;28;20077;-40
2023/03/25 04:53:49;;;;;;;1152.45;427.42;;;16.00;71.20;;;;;;5034850;28;20045;-40
2023/03/25 04:56:16;;;;;;;1111.72;422.38;;;16.00;71.20;;;;;;5034956;28;20055;-41
2023/03/25 04:58:44;;;;;;;1111.00;414.15;;;16.00;71.30;;;;;;5034317;28;20046;-42
2023/03/25 05:01:31;;;;;;;1083.55;406.40;;;16.00;71.20;;;;;;5035054;28;20056;-47
2023/03/25 05:04:05;;;;;;;1085.82;403.73;;;16.00;71.20;;;;;;5001310;28;20069;-41
2023/03/25 05:06:33;;;;;;;1035.68;391.08;;;16.00;71.30;;;;;;5004859;28;20056;-40
2023/03/25 05:09:03;;;;;;;1046.47;388.80;;;15.90;71.10;;;;;;5015079;28;20046;-40
2023/03/25 05:11:30;;;;;;;1007.13;380.63;;;15.90;71.20;;;;;;5014646;28;20104;-42
2023/03/25 05:13:57;;;;;;;989.67;380.02;;;16.00;71.80;;;;;;5014392;28;20056;-42
2023/03/25 05:16:25;;;;;;;989.72;375.83;;;15.90;71.20;;;;;;5019533;28;20056;-40
2023/03/25 05:18:52;;;;;;;975.20;365.67;;;15.90;71.20;;;;;;5034294;28;20055;-42
2023/03/25 05:21:19;;;;;;;967.88;365.80;;;15.90;71.20;;;;;;5034602;28;20049;-43
2023/03/25 05:23:46;;;;;;;941.70;351.00;;;15.90;71.10;;;;;;5025315;28;20073;-43
2023/03/25 05:26:12;;;;;;;922.25;345.10;;;15.90;71.10;;;;;;5013676;28;20478;-44
2023/03/25 05:28:39;;;;;;;894.25;336.98;;;15.90;71.20;;;;;;5014339;28;20050;-42
2023/03/25 05:31:09;;;;;;;904.40;339.50;;;15.90;71.20;;;;;;5014399;28;20456;-45
2023/03/25 05:33:42;;;;;;;857.58;319.90;;;15.90;71.20;;;;;;5014141;28;20104;-43
2023/03/25 05:36:10;;;;;;;865.00;328.70;;;15.90;71.20;;;;;;5014605;28;20141;-40
2023/03/25 05:38:40;;;;;;;840.53;314.52;;;15.90;71.10;;;;;;5014653;28;20073;-41
2023/03/25 05:41:15;;;;;;;819.83;307.60;;;15.90;71.10;;;;;;5013839;28;20100;-43
2023/03/25 05:43:46;;;;;;;813.85;302.58;;;15.90;71.10;;;;;;5014223;28;20081;-42
2023/03/25 05:46:14;;;;;;;805.65;302.40;;;15.90;71.10;;;;;;5014146;28;20104;-40
2023/03/25 05:48:41;;;;;;;793.35;289.48;;;15.90;71.10;;;;;;5013354;28;20046;-43
2023/03/25 05:51:14;;;;;;;785.80;292.00;;;15.90;71.20;;;;;;5013402;28;20164;-45
2023/03/25 05:53:48;;;;;;;776.83;282.92;;;15.90;71.10;;;;;;5013637;28;20050;-41
2023/03/25 05:56:19;;;;;;;769.17;284.10;;;15.90;71.20;;;;;;5014026;28;20121;-41
2023/03/25 05:58:47;;;;;;;758.15;273.70;;;15.90;71.20;;;;;;5013868;28;20046;-41
2023/03/25 06:01:15;;;;;;;736.03;267.08;;;15.90;71.20;;;;;;5013235;28;20382;-45
2023/03/25 06:04:00;;;;;;;724.38;263.35;;;15.90;71.20;;;;;;5013656;28;20136;-41
2023/03/25 06:06:27;;;;;;;709.13;258.52;;;15.90;71.20;;;;;;5013748;28;20085;-41
2023/03/25 06:08:54;;;;;;;699.78;254.00;;;15.90;71.20;;;;;;5013229;28;20528;-41
2023/03/25 06:11:21;;;;;;;683.83;241.35;;;15.90;71.20;;;;;;5013815;28;20060;-43
2023/03/25 06:13:51;;;;;;;681.45;241.38;;;15.90;71.20;;;;;;5013312;28;20411;-40
2023/03/25 06:16:26;;;;;;;660.92;238.20;;;15.90;71.20;;;;;;5013140;28;20136;-43
2023/03/25 06:18:55;;;;;;;640.30;229.23;;;15.90;71.20;;;;;;5012863;28;20489;-39
2023/03/25 06:21:22;;;;;;;649.67;231.18;;;15.80;71.20;;;;;;5025352;28;20151;-42
2023/03/25 06:23:49;;;;;;;630.33;219.98;;;15.90;71.20;;;;;;4977263;28;20104;-40
2023/03/25 06:26:16;;;;;;;616.20;209.50;;;15.90;71.20;;;;;;5005606;28;20045;-42
2023/03/25 06:28:43;;;;;;;624.03;213.05;;;15.90;71.10;;;;;;5032837;28;20551;-42
2023/03/25 06:31:15;;;;;;;597.83;202.88;;;15.90;71.10;;;;;;5032001;28;20174;-40
2023/03/25 06:33:43;;;;;;;592.70;201.45;;;15.90;71.10;;;;;;5032783;28;20511;-40
2023/03/25 06:36:19;;;;;;;585.55;196.65;;;15.90;71.20;;;;;;5032516;28;20053;-40
2023/03/25 06:38:47;;;;;;;572.83;195.15;;;15.90;71.20;;;;;;5033134;28;20052;-40
2023/03/25 06:41:16;;;;;;;554.65;185.68;;;15.90;71.20;;;;;;5032811;28;20489;-45
2023/03/25 06:43:43;;;;;;;536.08;178.30;;;15.90;71.10;;;;;;5032449;28;20045;-42
2023/03/25 06:46:09;;;;;;;535.75;180.02;;;15.90;71.10;;;;;;5032985;28;20084;-42
2023/03/25 06:48:36;;;;;;;502.83;170.20;;;15.90;71.10;;;;;;5032860;28;20496;-40
2023/03/25 06:51:03;;;;;;;519.63;171.10;;;15.80;71.20;;;;;;5032140;28;20049;-47
2023/03/25 06:53:31;;;;;;;524.15;176.43;;;15.90;71.20;;;;;;5035918;28;20160;-39
2023/03/25 06:55:58;;;;;;;517.50;171.70;;;15.90;71.20;;;;;;5035438;28;20045;-41
2023/03/25 06:58:33;;;;;;;500.95;167.43;;;16.00;70.80;;;;;;5034468;28;20042;-47
2023/03/25 07:01:04;;;;;;;487.30;160.32;;;16.00;71.20;;;;;;5032594;28;20068;-50
2023/03/25 07:03:32;;;;;;;480.33;158.15;;;16.10;71.00;;;;;;5032823;28;20076;-47
2023/03/25 07:05:59;;;;;;;472.55;160.80;;;16.10;71.30;;;;;;5031739;28;20073;-48
2023/03/25 07:08:25;;;;;;;473.88;154.27;;;16.10;71.50;;;;;;5032424;28;20141;-45
2023/03/25 07:10:52;;;;;;;423.42;136.80;;;16.10;71.60;;;;;;5014565;28;20459;-49
2023/03/25 07:13:19;;;;;;;450.75;148.32;;;16.10;72.50;;;;;;4953248;28;20073;-45
2023/03/25 07:15:46;;;;;;;424.15;140.23;;;16.10;72.30;;;;;;4998431;28;20101;-50
2023/03/25 07:18:13;;;;;;;408.85;132.98;;;16.10;72.10;;;;;;4999147;28;20104;-46
2023/03/25 07:20:41;;;;;;;378.17;126.03;;;16.10;72.50;;;;;;5006984;28;20058;-50
2023/03/25 07:23:12;;;;;;;356.57;117.10;;;16.20;72.60;;;;;;5012761;28;20481;-49
2023/03/25 07:25:39;;;;;;;353.25;120.63;;;16.10;72.10;;;;;;5012031;28;20108;-47
2023/03/25 07:28:06;;;;;;;362.42;122.20;;;16.20;72.30;;;;;;5008982;28;20508;-43
2023/03/25 07:30:32;;;;;;;347.55;119.53;;;16.10;72.10;;;;;;5012355;28;20093;-48
2023/03/25 07:33:00;;;;;;;311.33;105.38;;;16.10;72.40;;;;;;4946014;28;20057;-50
2023/03/25 07:35:26;;;;;;;309.15;104.57;;;16.20;71.90;;;;;;5007191;28;20046;-46
2023/03/25 07:37:53;;;;;;;317.85;104.38;;;16.20;71.50;;;;;;5012637;28;20054;-45
2023/03/25 07:40:20;;;;;;;300.45;102.78;;;16.20;71.60;;;;;;5011764;28;20046;-47
2023/03/25 07:42:47;;;;;;;254.82;85.28;;;16.20;71.60;;;;;;5012424;28;20046;-46
2023/03/25 07:45:14;;;;;;;257.30;84.22;;;16.20;70.90;;;;;;5012555;28;20042;-44
2023/03/25 07:47:41;;;;;;;257.92;85.28;;;16.20;70.80;;;;;;5011638;28;20060;-44
2023/03/25 07:50:08;;;;;;;254.55;83.47;;;16.20;70.80;;;;;;5012380;28;20136;-45
2023/03/25 07:52:35;;;;;;;244.95;78.20;;;16.20;70.70;;;;;;5012146;28;20054;-45
2023/03/25 07:55:02;;;;;;;236.48;77.78;;;16.20;70.60;;;;;;5012178;28;20137;-46
2023/03/25 07:57:29;;;;;;;229.48;78.78;;;16.20;70.00;;;;;;5012348;28;20060;-46
2023/03/25 07:59:55;;;;;;;225.57;72.85;;;16.20;70.30;;;;;;5012337;28;20084;-44
2023/03/25 08:02:22;;;;;;;204.77;66.22;;;16.20;70.20;;;;;;5011691;28;20459;-47
2023/03/25 08:04:49;;;;;;;209.30;67.80;;;16.20;70.30;;;;;;5012567;28;20057;-44
2023/03/25 08:07:16;;;;;;;193.88;64.10;;;16.10;69.60;;;;;;5012376;28;20373;-43
2023/03/25 08:09:42;;;;;;;187.73;61.17;;;16.10;69.70;;;;;;5011829;28;20073;-46
2023/03/25 08:12:09;;;;;;;177.93;60.95;;;16.10;69.30;;;;;;5012447;28;20136;-43
2023/03/25 08:14:36;;;;;;;171.20;56.65;;;16.20;69.80;;;;;;5013467;28;20042;-41
2023/03/25 08:17:06;;;;;;;179.52;57.85;;;16.10;69.20;;;;;;5015718;28;20077;-41
2023/03/25 08:19:33;;;;;;;171.68;55.03;;;16.10;69.30;;;;;;5015794;28;20100;-42
2023/03/25 08:22:00;;;;;;;162.35;51.55;;;16.20;69.40;;;;;;5015177;28;20082;-41
2023/03/25 08:24:28;;;;;;;160.95;50.55;;;16.20;69.60;;;;;;5015957;28;20453;-46
2023/03/25 08:26:55;;;;;;;144.63;51.33;;;16.20;69.60;;;;;;5015547;28;20061;-47
2023/03/25 08:29:23;;;;;;;143.23;47.00;;;16.20;69.80;;;;;;5015032;28;20112;-48
2023/03/25 08:31:51;;;;;;;122.47;41.95;;;16.20;70.00;;;;;;5029045;28;20385;-52
2023/03/25 08:34:19;;;;;;;132.98;45.65;;;16.20;70.10;;;;;;5035612;28;20054;-44
2023/03/25 08:36:46;;;;;;;115.82;40.08;;;16.20;70.20;;;;;;5034515;28;20459;-46
2023/03/25 08:39:15;;;;;;;119.78;42.10;;;16.30;70.40;;;;;;5025824;28;20088;-39
2023/03/25 08:41:43;;;;;;;127.60;41.33;;;16.30;69.80;;;;;;5017033;28;20394;-39
2023/03/25 08:44:10;;;;;;;124.22;42.17;;;16.30;69.80;;;;;;5014794;28;20571;-43
2023/03/25 08:46:37;;;;;;;116.05;39.60;;;16.30;70.30;;;;;;5015513;28;20071;-46
2023/03/25 08:49:05;;;;;;;110.18;40.28;;;16.30;70.40;;;;;;5015412;28;20042;-42
2023/03/25 08:51:32;;;;;;;117.93;39.30;;;16.40;70.70;;;;;;5014150;28;20065;-42
2023/03/25 08:53:59;;;;;;;107.32;37.13;;;16.40;70.40;;;;;;5014506;28;20042;-44
2023/03/25 08:56:27;;;;;;;107.25;37.45;;;16.40;70.40;;;;;;5015445;28;20120;-43
2023/03/25 08:58:54;;;;;;;106.05;36.17;;;16.40;70.50;;;;;;5014808;28;20370;-48
2023/03/25 09:01:23;;;;;;;109.32;34.45;;;16.40;70.40;;;;;;5015059;28;20385;-41
2023/03/25 09:03:50;;;;;;;103.68;35.72;;;16.40;70.30;;;;;;5014587;28;20119;-42
2023/03/25 09:06:17;;;;;;;100.07;34.85;;;16.40;70.20;;;;;;5015048;28;20100;-47
2023/03/25 09:08:43;;;;;;;91.47;32.47;;;16.40;70.20;;;;;;5014696;28;20077;-44
2023/03/25 09:11:16;;;;;;;87.00;30.83;;;16.40;70.20;;;;;;5014417;28;20050;-42
2023/03/25 09:13:56;;;;;;;95.97;33.72;;;16.50;70.10;;;;;;5014560;28;20042;-44
2023/03/25 09:16:22;;;;;;;88.90;32.58;;;16.50;70.00;;;;;;5014902;28;20069;-43
2023/03/25 09:18:49;;;;;;;89.80;32.97;;;16.50;70.00;;;;;;5014288;28;20041;-41
2023/03/25 09:21:16;;;;;;;82.25;30.40;;;16.50;70.60;;;;;;5014700;28;20543;-46
2023/03/25 09:23:43;;;;;;;78.47;28.90;;;16.50;69.90;;;;;;5014877;28;20046;-45
2023/03/25 09:26:10;;;;;;;74.68;30.10;;;16.50;69.90;;;;;;5013097;28;20054;-44
2023/03/25 09:28:37;;;;;;;80.95;29.60;;;16.60;69.90;;;;;;5014347;28;20050;-44
2023/03/25 09:31:04;;;;;;;74.18;27.60;;;16.60;69.90;;;;;;5014687;28;20073;-43
2023/03/25 09:33:34;;;;;;;73.30;27.90;;;16.50;69.90;;;;;;5013903;28;20416;-43
2023/03/25 09:36:02;;;;;;;71.55;27.83;;;16.60;69.90;;;;;;5013505;28;20050;-44
2023/03/25 09:38:29;;;;;;;67.10;25.98;;;16.60;69.90;;;;;;5014591;28;20424;-46
2023/03/25 09:40:56;;;;;;;79.70;26.50;;;16.50;69.80;;;;;;5014149;28;20120;-48
2023/03/25 09:43:34;;;;;;;71.13;27.02;;;16.60;69.90;;;;;;5014208;28;20144;-47
2023/03/25 09:46:01;;;;;;;65.43;25.05;;;16.60;69.80;;;;;;5013920;28;20104;-45
2023/03/25 09:48:37;;;;;;;62.30;25.17;;;16.60;69.70;;;;;;4996718;28;20046;-42
2023/03/25 09:51:11;;;;;;;64.43;24.58;;;16.70;69.80;;;;;;5014133;28;20053;-44
2023/03/25 09:53:48;;;;;;;62.17;24.35;;;16.70;69.80;;;;;;5013648;28;20054;-45
2023/03/25 09:56:23;;;;;;;64.88;24.35;;;16.70;69.60;;;;;;5013036;28;20057;-48
2023/03/25 09:58:55;;;;;;;59.72;23.58;;;16.80;69.60;;;;;;5014140;28;20153;-47
2023/03/25 10:01:45;;;;;;;54.08;21.85;;;16.80;69.50;;;;;;4996295;28;20054;-45
2023/03/25 10:04:42;;;;;;;59.95;23.23;;;16.80;69.40;;;;;;5012828;28;20049;-43
2023/03/25 10:07:15;;;;;;;51.45;21.08;;;16.80;69.40;;;;;;5012207;28;20116;-46
2023/03/25 10:09:54;;;;;;;52.92;21.38;;;16.80;69.40;;;;;;5014010;28;20049;-43
2023/03/25 10:12:20;;;;;;;59.55;22.15;;;16.80;69.50;;;;;;5013930;28;20132;-45
2023/03/25 10:15:14;;;;;;;51.97;20.30;;;16.80;69.50;;;;;;5013020;28;20042;-44
2023/03/25 10:18:15;;;;;;;54.78;21.08;;;16.80;70.00;;;;;;5013754;28;20076;-45
2023/03/25 10:20:53;;;;;;;50.90;19.85;;;16.80;69.60;;;;;;5012972;28;20050;-47
2023/03/25 10:23:30;;;;;;;44.67;18.65;;;16.80;69.50;;;;;;4995678;28;20069;-48
2023/03/25 10:26:09;;;;;;;40.63;17.25;;;16.80;69.30;;;;;;5008066;28;20082;-46
2023/03/25 10:28:42;;;;;;;44.70;18.38;;;16.90;69.20;;;;;;4993379;28;20144;-49
2023/03/25 10:31:13;;;;;;;38.42;16.48;;;16.90;69.40;;;;;;5008358;28;20516;-44
2023/03/25 10:33:41;;;;;;;44.20;17.83;;;16.90;69.30;;;;;;5008626;28;20046;-43
2023/03/25 10:36:13;;;;;;;44.38;17.08;;;16.90;69.30;;;;;;5008002;28;20483;-42
2023/03/25 10:38:40;;;;;;;43.13;17.15;;;17.00;69.30;;;;;;5008820;28;20043;-48
2023/03/25 10:41:29;;;;;;;40.90;16.05;;;17.00;69.30;;;;;;5008659;28;20401;-45
2023/03/25 10:43:56;;;;;;;38.33;16.05;;;17.00;69.20;;;;;;5007962;28;20136;-47
2023/03/25 10:46:48;;;;;;;38.08;15.60;;;17.00;69.20;;;;;;4993598;28;20053;-44
2023/03/25 10:49:20;;;;;;;37.87;15.90;;;17.10;69.20;;;;;;5005741;28;20186;-43
2023/03/25 10:51:50;;;;;;;36.80;15.05;;;17.10;69.10;;;;;;4993570;28;20309;-47
2023/03/25 10:54:16;;;;;;;31.30;14.65;;;17.20;69.10;;;;;;5008641;28;20056;-46
2023/03/25 10:56:45;;;;;;;34.30;14.68;;;17.20;68.90;;;;;;4992928;28;20556;-46
2023/03/25 10:59:34;;;;;;;35.00;14.77;;;17.20;68.90;;;;;;5008279;28;20054;-43
2023/03/25 11:02:13;;;;;;;34.08;13.70;;;17.30;68.80;;;;;;5006253;28;20054;-44
2023/03/25 11:04:41;;;;;;;31.00;13.25;;;17.30;68.90;;;;;;5007910;28;20050;-46
2023/03/25 11:07:19;;;;;;;31.38;13.02;;;17.30;68.80;;;;;;5008388;28;20132;-45
2023/03/25 11:09:46;;;;;;;32.00;13.88;;;17.30;68.80;;;;;;5007423;28;20096;-44
2023/03/25 11:12:13;;;;;;;32.80;13.18;;;17.30;68.80;;;;;;5007730;28;20497;-43
2023/03/25 11:14:40;;;;;;;31.48;12.45;;;17.30;68.90;;;;;;5014339;28;20084;-49
2023/03/25 11:17:11;;;;;;;31.42;12.43;;;17.30;68.90;;;;;;5012996;28;20132;-44
2023/03/25 11:19:51;;;;;;;28.95;12.55;;;17.30;68.80;;;;;;5011490;28;20054;-44
2023/03/25 11:22:23;;;;;;;27.15;11.55;;;17.30;68.80;;;;;;5013105;28;20072;-43
2023/03/25 11:24:53;;;;;;;26.17;11.27;;;17.40;68.80;;;;;;4995681;28;20082;-48
2023/03/25 11:27:25;;;;;;;27.10;11.93;;;17.30;68.80;;;;;;5011416;28;20451;-45
2023/03/25 11:29:53;;;;;;;27.77;11.68;;;17.30;68.80;;;;;;5011330;28;20085;-45
2023/03/25 11:32:30;;;;;;;23.65;10.88;;;17.40;68.90;;;;;;5011283;28;20096;-45
2023/03/25 11:35:00;;;;;;;27.63;11.52;;;17.30;68.80;;;;;;5012872;28;20061;-47
2023/03/25 11:37:27;;;;;;;25.75;10.90;;;17.40;68.90;;;;;;5011540;28;20072;-46
2023/03/25 11:39:54;;;;;;;24.15;11.45;;;17.30;69.40;;;;;;4994918;28;20152;-45
2023/03/25 11:42:31;;;;;;;26.63;11.25;;;17.30;68.80;;;;;;5012725;28;20703;-46
2023/03/25 11:44:59;;;;;;;23.88;10.93;;;17.40;68.80;;;;;;5012663;28;20058;-46
2023/03/25 11:47:30;;;;;;;23.40;9.70;;;17.40;68.80;;;;;;5011244;28;20049;-48
2023/03/25 11:49:57;;;;;;;24.35;10.82;;;17.40;68.70;;;;;;5013925;28;20508;-45
2023/03/25 11:52:31;;;;;;;24.92;10.65;;;17.40;68.70;;;;;;5015127;28;20081;-48
2023/03/25 11:54:58;;;;;;;22.55;9.65;;;17.40;68.80;;;;;;5015439;28;20042;-45
2023/03/25 11:57:27;;;;;;;22.48;10.80;;;17.40;68.70;;;;;;4999267;28;20053;-45
2023/03/25 12:00:11;;;;;;;22.85;9.60;;;17.40;69.30;;;;;;5014778;28;20054;-48
2023/03/25 12:02:38;;;;;;;25.63;10.60;;;17.50;68.60;;;;;;5015422;28;20452;-47
2023/03/25 12:05:11;;;;;;;21.05;9.32;;;17.50;68.70;;;;;;5016359;28;20413;-44
2023/03/25 12:07:48;;;;;;;22.52;9.93;;;17.50;68.60;;;;;;5015752;28;20056;-50
2023/03/25 12:10:23;;;;;;;22.23;9.60;;;17.50;68.60;;;;;;5016079;28;20492;-45
2023/03/25 12:12:59;;;;;;;20.55;9.50;;;17.50;68.50;;;;;;5014776;28;20531;-44
2023/03/25 12:15:34;;;;;;;20.13;8.63;;;17.60;68.50;;;;;;5014029;28;20512;-46
2023/03/25 12:18:22;;;;;;;17.75;8.70;;;17.70;68.50;;;;;;5016179;28;20065;-45
2023/03/25 12:21:11;;;;;;;17.55;8.05;;;17.70;68.50;;;;;;5014396;28;20088;-48
2023/03/25 12:23:47;;;;;;;23.52;9.00;;;17.70;68.90;;;;;;5014993;28;20100;-46
2023/03/25 12:26:47;;;;;;;17.33;7.90;;;17.80;68.30;;;;;;5014858;28;20049;-43
2023/03/25 12:29:34;;;;;;;19.83;8.77;;;17.80;68.30;;;;;;5007780;28;20056;-47